createdAt,value
2019-02-16T00:02:13.928Z,12.40
2019-02-16T00:04:43.915Z,15.20
2019-02-16T00:07:13.834Z,8.00
2019-02-16T00:09:43.825Z,11.80
2019-02-16T00:12:13.715Z,11.77
2019-02-16T00:14:43.774Z,10.90
2019-02-16T00:17:13.706Z,10.03
2019-02-16T00:19:43.610Z,11.77
2019-02-16T00:22:13.570Z,14.93
2019-02-16T00:24:43.482Z,15.23
2019-02-16T00:27:13.523Z,10.73
2019-02-16T00:29:43.589Z,10.73
2019-02-16T00:32:13.479Z,16.73
2019-02-16T00:34:43.458Z,8.77
2019-02-16T00:37:13.356Z,12.53
2019-02-16T00:39:43.269Z,11.43
2019-02-16T00:42:13.163Z,9.87
2019-02-16T00:44:43.146Z,10.00
2019-02-16T00:47:13.532Z,12.67
2019-02-16T00:49:43.354Z,10.13
2019-02-16T00:52:13.262Z,11.00
2019-02-16T00:54:43.223Z,12.50
2019-02-16T00:57:13.113Z,10.80
2019-02-16T00:59:43.022Z,11.43
2019-02-16T01:02:13.215Z,13.40
2019-02-16T01:04:43.119Z,10.10
2019-02-16T01:07:13.125Z,11.27
2019-02-16T01:09:43.024Z,8.70
2019-02-16T01:12:12.925Z,10.77
2019-02-16T01:14:42.917Z,9.50
2019-02-16T01:17:12.916Z,10.70
2019-02-16T01:19:42.819Z,12.53
2019-02-16T01:22:12.722Z,10.10
2019-02-16T01:24:42.652Z,9.23
2019-02-16T01:27:12.624Z,10.47
2019-02-16T01:29:42.542Z,10.63
2019-02-16T01:32:12.723Z,9.73
2019-02-16T01:34:42.620Z,11.07
2019-02-16T01:37:12.531Z,11.87
2019-02-16T01:39:42.525Z,9.10
2019-02-16T01:42:12.523Z,10.03
2019-02-16T01:44:42.446Z,11.40
2019-02-16T01:47:12.440Z,10.77
2019-02-16T01:49:42.429Z,9.53
2019-02-16T01:52:12.388Z,11.20
2019-02-16T01:54:42.291Z,13.50
2019-02-16T01:57:12.356Z,7.73
2019-02-16T01:59:42.256Z,11.43
2019-02-16T02:02:12.149Z,9.60
2019-02-16T02:04:42.060Z,11.30
2019-02-16T02:07:11.968Z,13.77
2019-02-16T02:09:41.940Z,14.53
2019-02-16T02:12:11.913Z,13.23
2019-02-16T02:14:41.819Z,10.80
2019-02-16T02:17:11.754Z,10.87
2019-02-16T02:19:41.665Z,11.10
2019-02-16T02:22:11.563Z,12.33
2019-02-16T02:24:41.550Z,11.47
2019-02-16T02:27:11.467Z,10.23
2019-02-16T02:29:41.373Z,10.90
2019-02-16T02:32:11.260Z,10.43
2019-02-16T02:34:41.164Z,13.40
2019-02-16T02:37:11.069Z,12.73
2019-02-16T02:39:41.084Z,12.43
2019-02-16T02:42:10.991Z,12.13
2019-02-16T02:44:40.995Z,16.03
2019-02-16T02:47:11.022Z,12.23
2019-02-16T02:49:40.986Z,13.53
2019-02-16T02:52:11.272Z,16.10
2019-02-16T02:54:41.191Z,16.67
2019-02-16T02:57:11.175Z,13.07
2019-02-16T02:59:41.091Z,15.30
2019-02-16T03:02:11.086Z,12.17
2019-02-16T03:04:40.988Z,13.20
2019-02-16T03:07:10.973Z,16.20
2019-02-16T03:09:40.891Z,12.93
2019-02-16T03:12:10.831Z,9.90
2019-02-16T03:14:40.708Z,14.83
2019-02-16T03:17:11.042Z,15.57
2019-02-16T03:19:40.924Z,13.07
2019-02-16T03:22:10.841Z,13.97
2019-02-16T03:24:41.438Z,13.27
2019-02-16T03:27:48.072Z,13.93
2019-02-16T03:30:47.199Z,12.20
2019-02-16T03:33:42.876Z,13.10
2019-02-16T03:36:55.594Z,14.87
2019-02-16T03:39:31.669Z,11.10
2019-02-16T03:42:01.593Z,13.83
2019-02-16T03:44:31.752Z,12.07
2019-02-16T03:47:01.669Z,13.53
2019-02-16T03:49:31.579Z,10.83
2019-02-16T03:52:01.492Z,13.97
2019-02-16T03:54:31.391Z,14.50
2019-02-16T03:57:01.380Z,12.80
2019-02-16T03:59:31.402Z,15.60
2019-02-16T04:02:01.841Z,15.50
2019-02-16T04:04:31.724Z,13.90
2019-02-16T04:07:01.767Z,15.80
2019-02-16T04:09:31.659Z,13.70
2019-02-16T04:12:01.676Z,10.97
2019-02-16T04:14:31.663Z,15.90
2019-02-16T04:17:01.628Z,11.37
2019-02-16T04:19:31.586Z,15.03
2019-02-16T04:22:01.588Z,11.17
2019-02-16T04:24:31.549Z,15.53
2019-02-16T04:27:01.469Z,15.90
2019-02-16T04:29:31.380Z,16.10
2019-02-16T04:32:01.306Z,14.30
2019-02-16T04:34:31.227Z,13.10
2019-02-16T04:37:01.212Z,13.40
2019-02-16T04:39:31.107Z,14.20
2019-02-16T04:42:01.017Z,12.13
2019-02-16T04:44:30.979Z,16.73
2019-02-16T04:47:00.911Z,18.17
2019-02-16T04:49:30.888Z,12.53
2019-02-16T04:52:00.812Z,14.00
2019-02-16T04:54:30.774Z,14.23
2019-02-16T04:57:00.771Z,15.13
2019-02-16T04:59:30.646Z,14.63
2019-02-16T05:02:00.575Z,15.63
2019-02-16T05:04:30.562Z,18.20
2019-02-16T05:07:00.615Z,13.53
2019-02-16T05:09:30.564Z,19.73
2019-02-16T05:12:00.455Z,18.17
2019-02-16T05:14:30.835Z,12.70
2019-02-16T05:17:00.762Z,14.10
2019-02-16T05:19:30.756Z,11.23
2019-02-16T05:22:00.671Z,14.13
2019-02-16T05:24:30.592Z,14.90
2019-02-16T05:27:00.500Z,15.27
2019-02-16T05:29:30.414Z,16.90
2019-02-16T05:32:00.314Z,15.30
2019-02-16T05:34:30.239Z,14.37
2019-02-16T05:37:00.532Z,16.70
2019-02-16T05:39:30.460Z,14.50
2019-02-16T05:42:00.415Z,11.97
2019-02-16T05:44:31.991Z,15.57
2019-02-16T05:47:02.061Z,15.03
2019-02-16T05:49:32.134Z,15.67
2019-02-16T05:52:02.019Z,14.80
2019-02-16T05:54:31.940Z,12.20
2019-02-16T05:57:01.827Z,16.97
2019-02-16T05:59:31.967Z,17.17
2019-02-16T06:02:01.953Z,18.50
2019-02-16T06:04:31.872Z,15.50
2019-02-16T06:07:01.835Z,17.10
2019-02-16T06:09:31.858Z,15.50
2019-02-16T06:12:01.753Z,25.23
2019-02-16T06:14:34.927Z,15.43
2019-02-16T06:17:06.152Z,22.27
2019-02-16T06:19:36.056Z,17.63
2019-02-16T06:22:06.037Z,16.03
2019-02-16T06:24:35.996Z,22.63
2019-02-16T06:27:05.892Z,15.53
2019-02-16T06:29:35.817Z,14.70
2019-02-16T06:32:05.723Z,13.07
2019-02-16T06:34:35.647Z,13.37
2019-02-16T06:37:21.192Z,10.70
2019-02-16T06:39:51.497Z,13.93
2019-02-16T06:42:21.589Z,13.70
2019-02-16T06:44:51.500Z,16.87
2019-02-16T06:47:21.443Z,21.33
2019-02-16T06:49:51.405Z,15.60
2019-02-16T06:52:21.369Z,22.83
2019-02-16T06:54:51.784Z,21.07
2019-02-16T06:57:29.831Z,14.10
2019-02-16T06:59:59.804Z,15.60
2019-02-16T07:02:30.911Z,18.37
2019-02-16T07:05:01.230Z,16.27
2019-02-16T07:07:31.310Z,14.37
2019-02-16T07:10:01.224Z,16.60
2019-02-16T07:12:31.105Z,10.17
2019-02-16T07:15:01.016Z,13.23
2019-02-16T07:17:42.613Z,11.80
2019-02-16T07:20:12.515Z,10.80
2019-02-16T07:22:42.423Z,14.17
2019-02-16T07:25:12.360Z,14.30
2019-02-16T07:27:42.381Z,10.97
2019-02-16T07:30:14.999Z,10.67
2019-02-16T07:32:44.975Z,12.17
2019-02-16T07:35:15.056Z,15.30
2019-02-16T07:37:44.943Z,15.10
2019-02-16T07:40:14.916Z,14.13
2019-02-16T07:43:02.829Z,11.63
2019-02-16T07:46:03.895Z,12.47
2019-02-16T07:48:52.852Z,16.80
2019-02-16T07:51:35.984Z,8.03
2019-02-16T07:54:14.788Z,10.23
2019-02-16T07:56:49.659Z,6.67
2019-02-16T07:59:47.738Z,10.13
2019-02-16T08:02:25.215Z,9.47
2019-02-16T08:05:06.793Z,9.37
2019-02-16T08:08:02.236Z,8.50
2019-02-16T08:10:52.813Z,11.47
2019-02-16T08:13:40.596Z,12.33
2019-02-16T08:16:30.012Z,9.93
2019-02-16T08:19:23.884Z,8.90
2019-02-16T08:22:15.695Z,7.87
2019-02-16T08:25:08.668Z,7.90
2019-02-16T08:28:06.974Z,10.57
2019-02-16T08:31:08.047Z,9.40
2019-02-16T08:33:43.951Z,10.13
2019-02-16T08:36:31.418Z,11.30
2019-02-16T08:39:16.070Z,9.40
2019-02-16T08:42:07.817Z,7.77
2019-02-16T08:44:45.168Z,8.90
2019-02-16T08:47:37.174Z,7.07
2019-02-16T08:50:25.476Z,9.47
2019-02-16T08:53:20.264Z,10.17
2019-02-16T08:56:24.683Z,10.20
2019-02-16T08:59:24.998Z,10.83
2019-02-16T09:02:07.699Z,9.17
2019-02-16T09:04:47.342Z,9.63
2019-02-16T09:07:54.696Z,8.80
2019-02-16T09:10:33.036Z,8.47
2019-02-16T09:13:18.575Z,9.63
2019-02-16T09:15:58.797Z,9.70
2019-02-16T09:18:46.327Z,8.63
2019-02-16T09:21:34.447Z,10.37
2019-02-16T09:24:22.368Z,18.70
2019-02-16T09:27:10.677Z,11.70
2019-02-16T09:30:02.672Z,7.60
2019-02-16T09:32:53.257Z,7.70
2019-02-16T09:35:29.864Z,8.33
2019-02-16T09:38:24.647Z,11.63
2019-02-16T09:41:13.646Z,10.27
2019-02-16T09:44:06.653Z,7.60
2019-02-16T09:46:49.991Z,11.10
2019-02-16T09:49:37.825Z,11.17
2019-02-16T09:52:32.844Z,6.80
2019-02-16T09:55:14.499Z,14.03
2019-02-16T09:58:15.466Z,12.43
2019-02-16T10:00:54.671Z,14.03
2019-02-16T10:03:53.084Z,9.30
2019-02-16T10:06:40.877Z,24.97
2019-02-16T10:09:29.979Z,4.70
2019-02-16T10:12:17.587Z,4.80
2019-02-16T10:15:06.929Z,5.97
2019-02-16T10:18:04.710Z,9.43
2019-02-16T10:20:59.922Z,9.20
2019-02-16T10:23:52.179Z,4.33
2019-02-16T10:26:41.961Z,6.03
2019-02-16T10:29:30.927Z,9.60
2019-02-16T10:32:31.096Z,5.63
2019-02-16T10:35:25.478Z,5.63
2019-02-16T10:38:13.091Z,5.63
2019-02-16T10:41:08.021Z,6.23
2019-02-16T10:43:54.419Z,6.70
2019-02-16T10:46:32.903Z,8.17
2019-02-16T10:49:27.745Z,7.70
2019-02-16T10:52:10.531Z,9.50
2019-02-16T10:55:06.190Z,7.03
2019-02-16T10:57:47.136Z,6.07
2019-02-16T11:00:45.289Z,14.23
2019-02-16T11:03:31.538Z,6.13
2019-02-16T11:06:08.876Z,8.57
2019-02-16T11:08:50.406Z,6.30
2019-02-16T11:11:27.974Z,6.40
2019-02-16T11:14:29.438Z,9.93
2019-02-16T11:17:09.284Z,11.10
2019-02-16T11:20:03.069Z,8.37
2019-02-16T11:22:49.658Z,11.20
2019-02-16T11:25:30.831Z,8.87
2019-02-16T11:28:21.877Z,8.97
2019-02-16T11:31:15.400Z,8.40
2019-02-16T11:34:03.218Z,11.80
2019-02-16T11:36:42.396Z,9.90
2019-02-16T11:39:29.993Z,8.17
2019-02-16T11:42:05.247Z,9.40
2019-02-16T11:44:53.206Z,9.47
2019-02-16T11:47:45.042Z,8.07
2019-02-16T11:50:33.164Z,7.00
2019-02-16T11:53:21.163Z,23.13
2019-02-16T11:56:03.844Z,7.27
2019-02-16T11:58:47.425Z,12.57
2019-02-16T12:01:36.368Z,10.17
2019-02-16T12:04:28.174Z,11.17
2019-02-16T12:07:17.094Z,10.30
2019-02-16T12:10:04.859Z,8.80
2019-02-16T12:12:49.893Z,9.37
2019-02-16T12:15:41.619Z,12.77
2019-02-16T12:18:33.348Z,7.80
2019-02-16T12:21:25.173Z,14.07
2019-02-16T12:24:20.996Z,9.83
2019-02-16T12:27:09.900Z,9.90
2019-02-16T12:30:08.251Z,11.80
2019-02-16T12:33:03.531Z,10.43
2019-02-16T12:35:52.472Z,18.10
2019-02-16T12:38:40.347Z,10.77
2019-02-16T12:41:17.760Z,11.70
2019-02-16T12:44:12.968Z,14.60
2019-02-16T12:47:00.863Z,10.70
2019-02-16T12:49:50.176Z,13.33
2019-02-16T12:52:39.136Z,10.23
2019-02-16T12:55:40.197Z,10.63
2019-02-16T12:58:15.919Z,12.10
2019-02-16T13:01:03.891Z,10.70
2019-02-16T13:04:07.958Z,14.77
2019-02-16T13:06:59.705Z,11.47
2019-02-16T13:10:03.836Z,10.63
2019-02-16T13:13:04.846Z,13.57
2019-02-16T13:15:52.642Z,14.23
2019-02-16T13:18:58.364Z,13.20
2019-02-16T13:21:41.323Z,12.20
2019-02-16T13:24:16.316Z,11.20
2019-02-16T13:27:00.207Z,12.23
2019-02-16T13:29:55.704Z,13.63
2019-02-16T13:32:38.286Z,11.40
2019-02-16T13:35:38.248Z,12.33
2019-02-16T13:38:27.182Z,10.37
2019-02-16T13:41:02.053Z,13.50
2019-02-16T13:43:55.160Z,13.20
2019-02-16T13:46:53.337Z,11.70
2019-02-16T13:49:46.202Z,13.20
2019-02-16T13:52:35.157Z,10.50
2019-02-16T13:55:33.028Z,17.30
2019-02-16T13:58:17.536Z,12.80
2019-02-16T14:01:24.997Z,15.17
2019-02-16T14:04:25.496Z,13.77
2019-02-16T14:07:03.147Z,13.17
2019-02-16T14:09:54.454Z,18.87
2019-02-16T14:12:41.740Z,15.60
2019-02-16T14:15:34.046Z,14.23
2019-02-16T14:18:04.138Z,12.23
2019-02-16T14:20:34.148Z,8.43
2019-02-16T14:23:04.185Z,7.50
2019-02-16T14:25:47.532Z,9.80
2019-02-16T14:28:17.447Z,9.83
2019-02-16T14:30:47.474Z,6.83
2019-02-16T14:33:17.357Z,7.30
2019-02-16T14:35:47.268Z,7.60
2019-02-16T14:38:23.752Z,8.43
2019-02-16T14:40:53.683Z,6.13
2019-02-16T14:43:23.690Z,5.67
2019-02-16T14:45:53.749Z,9.33
2019-02-16T14:48:23.625Z,7.80
2019-02-16T14:50:53.631Z,8.37
2019-02-16T14:53:23.546Z,9.60
2019-02-16T14:55:54.472Z,7.40
2019-02-16T14:58:24.557Z,7.50
2019-02-16T15:00:54.452Z,9.77
2019-02-16T15:03:24.358Z,10.63
2019-02-16T15:05:54.330Z,14.33
2019-02-16T15:08:24.253Z,15.73
2019-02-16T15:10:54.211Z,12.47
2019-02-16T15:13:24.145Z,12.33
2019-02-16T15:15:54.057Z,13.50
2019-02-16T15:18:24.063Z,19.20
2019-02-16T15:20:54.025Z,10.90
2019-02-16T15:23:23.962Z,12.03
2019-02-16T15:26:00.688Z,13.40
2019-02-16T15:28:25.412Z,13.87
2019-02-16T15:30:55.391Z,13.90
2019-02-16T15:33:25.380Z,12.53
2019-02-16T15:35:55.311Z,17.50
2019-02-16T15:38:25.557Z,14.57
2019-02-16T15:40:59.165Z,12.37
2019-02-16T15:43:32.029Z,17.67
2019-02-16T15:46:01.989Z,13.40
2019-02-16T15:48:31.987Z,17.40
2019-02-16T15:51:01.964Z,15.57
2019-02-16T15:53:31.875Z,12.37
2019-02-16T15:56:10.087Z,11.80
2019-02-16T15:58:33.353Z,12.20
2019-02-16T16:01:04.108Z,14.30
2019-02-16T16:03:34.079Z,13.00
2019-02-16T16:06:03.990Z,13.00
2019-02-16T16:09:08.225Z,13.40
2019-02-16T16:11:53.965Z,16.70
2019-02-16T16:14:34.548Z,18.17
2019-02-16T16:17:29.739Z,12.23
2019-02-16T16:20:31.076Z,19.90
2019-02-16T16:23:18.752Z,15.87
2019-02-16T16:26:05.870Z,11.60
2019-02-16T16:28:43.781Z,23.37
2019-02-16T16:31:31.715Z,32.00
2019-02-16T16:34:10.747Z,22.13
2019-02-16T16:36:50.960Z,22.70
2019-02-16T16:39:45.862Z,27.83
2019-02-16T16:42:43.802Z,17.00
2019-02-16T16:45:32.784Z,28.50
2019-02-16T16:48:20.576Z,28.50
2019-02-16T16:51:08.090Z,19.50
2019-02-16T16:53:55.833Z,21.73
2019-02-16T16:56:40.293Z,17.53
2019-02-16T16:59:26.695Z,14.60
2019-02-16T17:02:14.596Z,20.33
2019-02-16T17:04:52.941Z,16.83
2019-02-16T17:07:45.075Z,18.40
2019-02-16T17:10:33.041Z,15.10
2019-02-16T17:13:31.072Z,16.40
2019-02-16T17:16:13.188Z,13.53
2019-02-16T17:18:50.183Z,16.70
2019-02-16T17:21:45.365Z,14.40
2019-02-16T17:24:39.356Z,18.10
2019-02-16T17:27:18.668Z,19.10
2019-02-16T17:30:22.867Z,18.27
2019-02-16T17:33:17.979Z,19.30
2019-02-16T17:36:09.855Z,24.60
2019-02-16T17:38:58.800Z,15.13
2019-02-16T17:41:54.543Z,18.10
2019-02-16T17:44:58.824Z,40.83
2019-02-16T17:48:00.021Z,35.60
2019-02-16T17:50:56.332Z,23.43
2019-02-16T17:53:38.482Z,31.40
2019-02-16T17:56:25.754Z,57.77
2019-02-16T17:59:07.139Z,44.33
2019-02-16T18:01:54.031Z,23.77
2019-02-16T18:04:55.888Z,26.20
2019-02-16T18:07:50.627Z,30.60
2019-02-16T18:10:55.023Z,32.00
2019-02-16T18:13:44.074Z,34.10
2019-02-16T18:16:33.269Z,39.30
2019-02-16T18:19:14.747Z,31.27
2019-02-16T18:21:52.969Z,33.13
2019-02-16T18:24:41.935Z,36.50
2019-02-16T18:27:30.860Z,29.27
2019-02-16T18:30:35.208Z,29.93
2019-02-16T18:33:14.637Z,43.00
2019-02-16T18:36:03.438Z,32.03
2019-02-16T18:38:44.871Z,34.80
2019-02-16T18:41:39.708Z,28.53
2019-02-16T18:44:34.720Z,30.47
2019-02-16T18:47:39.082Z,27.37
2019-02-16T18:50:18.565Z,20.40
2019-02-16T18:53:06.527Z,32.83
2019-02-16T18:56:01.635Z,30.03
2019-02-16T18:58:53.570Z,32.87
2019-02-16T19:01:37.289Z,32.80
2019-02-16T19:04:22.559Z,31.03
2019-02-16T19:07:14.644Z,27.60
2019-02-16T19:09:55.784Z,17.73
2019-02-16T19:12:48.046Z,23.00
2019-02-16T19:15:39.817Z,22.70
2019-02-16T19:18:24.973Z,21.53
2019-02-16T19:21:10.322Z,21.73
2019-02-16T19:23:57.937Z,22.00
2019-02-16T19:26:49.633Z,18.73
2019-02-16T19:29:38.650Z,20.33
2019-02-16T19:32:25.949Z,20.23
2019-02-16T19:35:04.318Z,23.47
2019-02-16T19:38:02.565Z,22.27
2019-02-16T19:40:38.367Z,20.00
2019-02-16T19:43:23.716Z,22.27
2019-02-16T19:46:11.622Z,44.17
2019-02-16T19:49:00.569Z,30.17
2019-02-16T19:51:56.161Z,54.47
2019-02-16T19:54:50.905Z,36.77
2019-02-16T19:57:42.640Z,27.60
2019-02-16T20:00:35.085Z,23.00
2019-02-16T20:03:26.817Z,21.40
2019-02-16T20:06:16.851Z,25.00
2019-02-16T20:09:21.226Z,26.03
2019-02-16T20:12:25.559Z,25.70
2019-02-16T20:15:14.517Z,23.50
2019-02-16T20:18:06.452Z,25.37
2019-02-16T20:21:03.217Z,25.20
2019-02-16T20:23:51.276Z,19.50
2019-02-16T20:26:41.665Z,23.53
2019-02-16T20:29:36.669Z,26.43
2019-02-16T20:32:28.481Z,24.97
2019-02-16T20:35:18.676Z,25.30
2019-02-16T20:38:04.984Z,31.90
2019-02-16T20:40:43.044Z,24.63
2019-02-16T20:43:33.403Z,28.40
2019-02-16T20:46:13.529Z,31.93
2019-02-16T20:49:09.571Z,45.60
2019-02-16T20:51:57.323Z,32.83
2019-02-16T20:54:43.384Z,31.40
2019-02-16T20:57:47.798Z,27.60
2019-02-16T21:00:26.925Z,31.27
2019-02-16T21:03:18.653Z,40.53
2019-02-16T21:06:07.429Z,31.87
2019-02-16T21:09:08.465Z,27.90
2019-02-16T21:12:06.520Z,30.67
2019-02-16T21:14:54.456Z,26.83
2019-02-16T21:17:40.377Z,27.17
2019-02-16T21:20:27.970Z,24.23
2019-02-16T21:23:12.172Z,33.80
2019-02-16T21:26:10.562Z,26.43
2019-02-16T21:28:52.029Z,24.60
2019-02-16T21:31:34.314Z,24.03
2019-02-16T21:34:08.558Z,22.30
2019-02-16T21:36:57.489Z,26.70
2019-02-16T21:39:49.059Z,31.43
2019-02-16T21:42:47.398Z,35.13
2019-02-16T21:45:42.221Z,26.17
2019-02-16T21:48:37.263Z,28.07
2019-02-16T21:51:30.973Z,25.57
2019-02-16T21:54:32.513Z,29.60
2019-02-16T21:57:15.876Z,30.33
2019-02-16T22:00:04.827Z,23.73
2019-02-16T22:02:58.311Z,23.97
2019-02-16T22:05:54.843Z,35.60
2019-02-16T22:08:50.015Z,25.27
2019-02-16T22:11:35.409Z,21.93
2019-02-16T22:14:05.323Z,25.93
2019-02-16T22:16:35.320Z,24.70
2019-02-16T22:19:05.282Z,25.10
2019-02-16T22:21:35.173Z,22.33
2019-02-16T22:24:05.107Z,27.10
2019-02-16T22:26:35.093Z,32.73
2019-02-16T22:29:05.035Z,24.90
2019-02-16T22:31:34.932Z,31.17
2019-02-16T22:34:04.881Z,32.07
2019-02-16T22:36:34.854Z,26.00
2019-02-16T22:39:05.663Z,31.50
2019-02-16T22:41:35.551Z,30.27
2019-02-16T22:44:05.521Z,38.60
2019-02-16T22:46:35.423Z,33.77
2019-02-16T22:49:05.593Z,27.40
2019-02-16T22:51:35.484Z,27.13
2019-02-16T22:54:05.528Z,29.17
2019-02-16T22:56:35.481Z,29.63
2019-02-16T22:59:05.380Z,34.07
2019-02-16T23:01:35.377Z,31.20
2019-02-16T23:04:05.301Z,28.53
2019-02-16T23:06:35.375Z,30.13
2019-02-16T23:09:11.783Z,31.30
2019-02-16T23:11:41.768Z,27.80
2019-02-16T23:14:11.663Z,35.13
2019-02-16T23:16:41.595Z,32.83
2019-02-16T23:19:11.517Z,31.80
2019-02-16T23:21:41.521Z,34.93
2019-02-16T23:24:11.429Z,29.87
2019-02-16T23:26:41.355Z,30.40
2019-02-16T23:29:11.261Z,29.87
2019-02-16T23:31:41.179Z,33.90
2019-02-16T23:34:11.154Z,29.03
2019-02-16T23:36:41.141Z,35.10
2019-02-16T23:39:12.129Z,32.50
2019-02-16T23:41:42.061Z,31.40
2019-02-16T23:44:11.964Z,38.13
2019-02-16T23:46:41.959Z,30.20
2019-02-16T23:49:11.863Z,37.20
2019-02-16T23:51:41.777Z,35.57
2019-02-16T23:54:11.691Z,34.90
2019-02-16T23:56:41.632Z,33.60
2019-02-16T23:59:11.553Z,35.83
